createdAt,value
2019-03-25T00:01:20.594Z,11.12
2019-03-25T00:04:02.640Z,11.93
2019-03-25T00:06:32.075Z,11.33
2019-03-25T00:09:08.584Z,10.98
2019-03-25T00:11:44.220Z,11.65
2019-03-25T00:14:20.016Z,11.53
2019-03-25T00:16:49.528Z,12.37
2019-03-25T00:19:25.507Z,12.28
2019-03-25T00:21:54.947Z,12.20
2019-03-25T00:24:38.582Z,13.50
2019-03-25T00:27:09.480Z,13.58
2019-03-25T00:29:45.114Z,12.63
2019-03-25T00:32:14.565Z,12.80
2019-03-25T00:34:50.901Z,12.82
2019-03-25T00:37:33.616Z,12.90
2019-03-25T00:40:16.587Z,8.80
2019-03-25T00:42:59.931Z,11.18
2019-03-25T00:45:36.010Z,11.12
2019-03-25T00:48:11.996Z,10.35
2019-03-25T00:50:41.442Z,9.88
2019-03-25T00:53:10.877Z,7.35
2019-03-25T00:55:46.971Z,7.60
2019-03-25T00:58:16.414Z,7.90
2019-03-25T01:00:52.404Z,7.62
2019-03-25T01:03:28.181Z,6.90
2019-03-25T01:06:04.608Z,6.42
2019-03-25T01:08:34.053Z,7.30
2019-03-25T01:11:09.751Z,7.30
2019-03-25T01:13:39.286Z,7.33
2019-03-25T01:16:08.729Z,7.08
2019-03-25T01:18:45.259Z,7.22
2019-03-25T01:21:20.980Z,8.10
2019-03-25T01:23:56.657Z,7.20
2019-03-25T01:26:26.163Z,7.47
2019-03-25T01:29:02.261Z,8.53
2019-03-25T01:31:38.179Z,7.87
2019-03-25T01:34:07.697Z,7.85
2019-03-25T01:36:43.334Z,7.85
2019-03-25T01:39:19.770Z,7.47
2019-03-25T01:42:02.289Z,7.40
2019-03-25T01:44:31.725Z,7.33
2019-03-25T01:47:07.868Z,7.30
2019-03-25T01:49:37.309Z,7.20
2019-03-25T01:52:06.894Z,6.92
2019-03-25T01:54:43.253Z,7.25
2019-03-25T01:57:12.758Z,7.15
2019-03-25T01:59:48.407Z,6.70
2019-03-25T02:02:17.843Z,7.37
2019-03-25T02:05:00.735Z,7.35
2019-03-25T02:07:36.382Z,7.28
2019-03-25T02:10:16.265Z,8.25
2019-03-25T02:12:45.778Z,7.70
2019-03-25T02:15:23.554Z,8.40
2019-03-25T02:17:53.145Z,8.50
2019-03-25T02:20:26.734Z,8.90
2019-03-25T02:23:01.033Z,8.28
2019-03-25T02:25:37.538Z,7.78
2019-03-25T02:28:06.965Z,7.33
2019-03-25T02:30:43.550Z,8.45
2019-03-25T02:33:19.788Z,7.80
2019-03-25T02:35:49.382Z,8.20
2019-03-25T02:38:25.138Z,8.40
2019-03-25T02:41:08.051Z,8.15
2019-03-25T02:43:43.772Z,7.80
2019-03-25T02:46:20.173Z,9.03
2019-03-25T02:48:56.639Z,7.83
2019-03-25T02:51:26.083Z,6.95
2019-03-25T02:54:02.660Z,8.48
2019-03-25T02:56:32.097Z,7.67
2019-03-25T02:59:01.530Z,7.12
2019-03-25T03:01:37.776Z,7.33
2019-03-25T03:04:13.412Z,7.35
2019-03-25T03:06:55.914Z,8.40
2019-03-25T03:09:25.360Z,7.37
2019-03-25T03:12:01.674Z,7.45
2019-03-25T03:14:31.122Z,8.18
2019-03-25T03:17:06.775Z,7.92
2019-03-25T03:19:43.046Z,7.45
2019-03-25T03:22:12.625Z,7.70
2019-03-25T03:24:48.840Z,8.13
2019-03-25T03:27:18.276Z,8.15
2019-03-25T03:29:47.715Z,7.47
2019-03-25T03:32:24.085Z,6.92
2019-03-25T03:34:53.512Z,7.92
2019-03-25T03:37:29.444Z,7.83
2019-03-25T03:40:05.825Z,7.70
2019-03-25T03:42:35.347Z,7.35
2019-03-25T03:45:12.827Z,7.00
2019-03-25T03:47:42.265Z,8.23
2019-03-25T03:50:31.343Z,7.42
2019-03-25T03:53:07.596Z,8.00
2019-03-25T03:55:46.419Z,7.42
2019-03-25T03:58:16.070Z,7.17
2019-03-25T04:00:51.618Z,7.58
2019-03-25T04:03:27.420Z,7.55
2019-03-25T04:06:03.166Z,7.15
2019-03-25T04:08:38.750Z,8.53
2019-03-25T04:11:08.337Z,7.65
2019-03-25T04:13:37.848Z,7.72
2019-03-25T04:16:14.201Z,8.45
2019-03-25T04:18:49.713Z,7.87
2019-03-25T04:21:19.219Z,7.67
2019-03-25T04:23:55.677Z,7.17
2019-03-25T04:26:29.018Z,7.53
2019-03-25T04:29:02.559Z,7.35
2019-03-25T04:31:32.076Z,7.65
2019-03-25T04:34:07.907Z,8.48
2019-03-25T04:36:37.331Z,8.00
2019-03-25T04:39:08.996Z,8.13
2019-03-25T04:41:44.480Z,8.45
2019-03-25T04:44:13.926Z,7.70
2019-03-25T04:46:49.554Z,8.10
2019-03-25T04:49:19.003Z,8.38
2019-03-25T04:51:54.538Z,9.48
2019-03-25T04:54:30.120Z,7.85
2019-03-25T04:57:06.519Z,9.30
2019-03-25T04:59:36.040Z,8.50
2019-03-25T05:02:12.095Z,8.83
2019-03-25T05:04:41.544Z,8.75
2019-03-25T05:07:17.568Z,8.70
2019-03-25T05:09:47.005Z,7.85
2019-03-25T05:12:23.020Z,8.35
2019-03-25T05:14:59.520Z,8.78
2019-03-25T05:17:28.949Z,8.15
2019-03-25T05:20:04.903Z,7.75
2019-03-25T05:22:34.342Z,7.53
2019-03-25T05:25:10.665Z,7.67
2019-03-25T05:27:46.220Z,7.15
2019-03-25T05:30:23.045Z,8.08
2019-03-25T05:32:58.774Z,7.85
2019-03-25T05:35:35.305Z,7.58
2019-03-25T05:38:04.802Z,6.95
2019-03-25T05:40:40.505Z,7.67
2019-03-25T05:43:09.954Z,7.67
2019-03-25T05:45:52.216Z,6.90
2019-03-25T05:48:34.626Z,7.42
2019-03-25T05:51:10.355Z,6.83
2019-03-25T05:53:46.095Z,8.83
2019-03-25T05:56:22.541Z,8.08
2019-03-25T05:58:58.976Z,8.48
2019-03-25T06:01:28.585Z,9.35
2019-03-25T06:04:04.249Z,8.20
2019-03-25T06:06:33.688Z,7.17
2019-03-25T06:09:15.990Z,8.80
2019-03-25T06:11:51.637Z,9.45
2019-03-25T06:14:27.586Z,9.23
2019-03-25T06:16:57.039Z,8.95
2019-03-25T06:19:26.480Z,8.98
2019-03-25T06:22:02.560Z,8.60
2019-03-25T06:24:38.033Z,9.45
2019-03-25T06:27:14.735Z,9.23
2019-03-25T06:29:50.758Z,8.93
2019-03-25T06:32:26.976Z,9.00
2019-03-25T06:35:02.665Z,8.33
2019-03-25T06:37:32.107Z,8.10
2019-03-25T06:40:08.190Z,8.80
2019-03-25T06:42:37.637Z,8.83
2019-03-25T06:45:16.400Z,9.28
2019-03-25T06:47:52.253Z,8.85
2019-03-25T06:50:34.902Z,9.25
2019-03-25T06:53:04.352Z,10.70
2019-03-25T06:55:33.792Z,9.78
2019-03-25T06:58:09.882Z,8.95
2019-03-25T07:00:46.325Z,9.13
2019-03-25T07:03:15.768Z,8.48
2019-03-25T07:05:51.798Z,8.28
2019-03-25T07:08:21.238Z,7.78
2019-03-25T07:10:57.004Z,9.50
2019-03-25T07:13:27.054Z,8.88
2019-03-25T07:15:56.491Z,8.75
2019-03-25T07:18:32.893Z,9.50
2019-03-25T07:21:09.260Z,9.23
2019-03-25T07:23:39.173Z,10.40
2019-03-25T07:26:15.171Z,9.90
2019-03-25T07:28:44.622Z,9.50
2019-03-25T07:31:27.201Z,10.23
2019-03-25T07:33:56.652Z,9.23
2019-03-25T07:36:26.097Z,9.88
2019-03-25T07:39:02.062Z,9.95
2019-03-25T07:41:31.498Z,14.75
2019-03-25T07:44:08.764Z,9.80
2019-03-25T07:46:38.272Z,10.05
2019-03-25T07:49:21.308Z,10.03
2019-03-25T07:51:57.293Z,9.50
2019-03-25T07:54:32.945Z,9.70
2019-03-25T07:57:02.406Z,10.15
2019-03-25T07:59:38.089Z,9.63
2019-03-25T08:02:07.668Z,9.43
2019-03-25T08:04:43.781Z,9.78
2019-03-25T08:07:13.301Z,9.88
2019-03-25T08:09:42.736Z,9.78
2019-03-25T08:12:18.935Z,9.65
2019-03-25T08:14:48.455Z,10.13
2019-03-25T08:17:24.880Z,9.78
2019-03-25T08:20:01.335Z,9.43
2019-03-25T08:22:30.780Z,10.10
2019-03-25T08:25:00.335Z,10.43
2019-03-25T08:27:36.287Z,9.58
2019-03-25T08:30:15.295Z,9.80
2019-03-25T08:32:44.734Z,9.70
2019-03-25T08:35:21.326Z,10.10
2019-03-25T08:37:56.831Z,10.00
2019-03-25T08:40:26.343Z,9.43
2019-03-25T08:43:02.153Z,10.68
2019-03-25T08:45:31.744Z,10.98
2019-03-25T08:48:13.960Z,9.93
2019-03-25T08:50:49.884Z,10.70
2019-03-25T08:53:32.714Z,9.60
2019-03-25T08:56:02.295Z,9.50
2019-03-25T08:58:31.754Z,10.00
2019-03-25T09:01:08.223Z,9.90
2019-03-25T09:03:37.667Z,10.53
2019-03-25T09:06:07.250Z,10.90
2019-03-25T09:08:44.707Z,11.35
2019-03-25T09:11:14.274Z,11.10
2019-03-25T09:13:52.100Z,14.85
2019-03-25T09:16:21.610Z,10.08
2019-03-25T09:18:57.776Z,10.48
2019-03-25T09:21:33.598Z,10.10
2019-03-25T09:24:03.031Z,9.28
2019-03-25T09:26:39.019Z,9.10
2019-03-25T09:29:08.528Z,9.30
2019-03-25T09:31:44.219Z,8.28
2019-03-25T09:34:13.794Z,8.38
2019-03-25T09:36:43.227Z,8.98
2019-03-25T09:39:19.935Z,8.60
2019-03-25T09:41:55.803Z,9.05
2019-03-25T09:44:25.314Z,10.10
2019-03-25T09:47:07.629Z,10.58
2019-03-25T09:49:50.918Z,10.68
2019-03-25T09:52:38.079Z,10.15
2019-03-25T09:55:05.300Z,6.85
2019-03-25T09:57:34.817Z,6.37
2019-03-25T10:00:17.337Z,8.70
2019-03-25T10:02:53.829Z,5.83
2019-03-25T10:05:23.347Z,8.35
2019-03-25T10:07:59.996Z,6.10
2019-03-25T10:10:29.501Z,5.28
2019-03-25T10:13:05.298Z,5.33
2019-03-25T10:15:41.069Z,6.03
2019-03-25T10:18:10.575Z,7.28
2019-03-25T10:20:46.639Z,5.67
2019-03-25T10:23:22.365Z,7.17
2019-03-25T10:25:51.950Z,5.53
2019-03-25T10:28:27.844Z,5.95
2019-03-25T10:30:57.419Z,6.35
2019-03-25T10:33:33.919Z,6.45
2019-03-25T10:36:03.496Z,4.62
2019-03-25T10:38:39.864Z,5.10
2019-03-25T10:41:09.706Z,4.65
2019-03-25T10:43:45.774Z,4.40
2019-03-25T10:46:21.324Z,4.83
2019-03-25T10:48:57.247Z,4.87
2019-03-25T10:51:33.302Z,4.53
2019-03-25T10:54:16.132Z,4.10
2019-03-25T10:56:52.404Z,3.37
2019-03-25T11:02:39.844Z,4.40
2019-03-25T11:05:16.273Z,4.33
2019-03-25T11:07:58.885Z,4.53
2019-03-25T11:10:47.931Z,4.53
2019-03-25T11:13:23.919Z,4.70
2019-03-25T11:16:06.581Z,4.80
2019-03-25T11:18:42.154Z,5.62
2019-03-25T11:21:25.123Z,4.80
2019-03-25T11:24:07.686Z,4.65
2019-03-25T11:26:43.348Z,4.80
2019-03-25T11:29:26.227Z,4.62
2019-03-25T11:32:10.035Z,4.67
2019-03-25T11:34:59.084Z,4.58
2019-03-25T11:37:35.593Z,4.67
2019-03-25T11:40:21.921Z,4.65
2019-03-25T11:43:04.756Z,4.17
2019-03-25T11:45:41.261Z,4.33
2019-03-25T11:48:24.240Z,4.50
2019-03-25T11:50:59.921Z,4.00
2019-03-25T11:53:43.523Z,4.50
2019-03-25T11:56:26.555Z,4.12
2019-03-25T11:59:03.081Z,4.65
2019-03-25T12:01:52.388Z,4.95
2019-03-25T12:04:34.539Z,4.92
2019-03-25T12:07:10.847Z,4.50
2019-03-25T12:09:53.460Z,3.87
2019-03-25T12:12:29.523Z,4.78
2019-03-25T12:15:14.981Z,4.58
2019-03-25T12:17:57.924Z,4.95
2019-03-25T12:20:40.228Z,4.83
2019-03-25T12:23:26.037Z,5.87
2019-03-25T12:26:01.394Z,4.12
2019-03-25T12:28:44.696Z,3.97
2019-03-25T12:31:26.873Z,3.55
2019-03-25T12:34:03.137Z,3.87
2019-03-25T12:36:39.318Z,3.55
2019-03-25T12:39:21.695Z,4.00
2019-03-25T12:41:57.468Z,3.75
2019-03-25T12:44:39.646Z,4.10
2019-03-25T12:47:22.079Z,5.28
2019-03-25T12:49:58.138Z,4.80
2019-03-25T12:52:42.073Z,4.53
2019-03-25T12:55:30.944Z,4.35
2019-03-25T12:58:13.207Z,4.33
2019-03-25T13:00:51.681Z,4.95
2019-03-25T13:03:35.085Z,4.83
2019-03-25T13:06:11.774Z,5.60
2019-03-25T13:08:54.236Z,4.78
2019-03-25T13:11:30.642Z,9.68
2019-03-25T13:14:13.946Z,6.20
2019-03-25T13:16:49.550Z,12.20
2019-03-25T13:19:32.118Z,7.15
2019-03-25T13:22:08.478Z,6.08
2019-03-25T13:24:50.035Z,6.28
2019-03-25T13:27:26.297Z,5.20
2019-03-25T13:30:08.942Z,5.97
2019-03-25T13:32:45.348Z,5.25
2019-03-25T13:35:27.565Z,5.97
2019-03-25T13:38:04.393Z,5.05
2019-03-25T13:40:46.337Z,5.72
2019-03-25T13:43:29.246Z,5.70
2019-03-25T13:46:12.151Z,6.03
2019-03-25T13:48:48.243Z,5.47
2019-03-25T13:51:31.271Z,5.40
2019-03-25T13:54:07.273Z,6.12
2019-03-25T13:56:50.616Z,6.00
2019-03-25T13:59:27.605Z,5.40
2019-03-25T14:02:09.479Z,5.47
2019-03-25T14:04:45.466Z,6.08
2019-03-25T14:07:27.966Z,6.30
2019-03-25T14:10:04.011Z,6.47
2019-03-25T14:12:46.681Z,6.95
2019-03-25T14:15:22.380Z,6.08
2019-03-25T14:18:05.689Z,5.95
2019-03-25T14:20:48.170Z,5.70
2019-03-25T14:23:31.647Z,7.90
2019-03-25T14:26:08.093Z,7.95
2019-03-25T14:28:50.807Z,5.97
2019-03-25T14:31:33.868Z,15.28
2019-03-25T14:34:15.954Z,7.92
2019-03-25T14:36:52.037Z,6.65
2019-03-25T14:39:27.814Z,7.97
2019-03-25T14:42:10.548Z,7.35
2019-03-25T14:45:06.607Z,7.28
2019-03-25T14:47:43.067Z,6.08
2019-03-25T14:50:25.606Z,7.60
2019-03-25T14:53:08.159Z,6.42
2019-03-25T14:55:50.688Z,8.35
2019-03-25T14:58:27.140Z,7.90
2019-03-25T15:01:09.754Z,6.75
2019-03-25T15:03:45.722Z,8.18
2019-03-25T15:06:28.515Z,8.85
2019-03-25T15:09:05.240Z,9.97
2019-03-25T15:11:48.214Z,9.08
2019-03-25T15:14:24.329Z,8.18
2019-03-25T15:17:06.980Z,11.78
2019-03-25T15:19:43.074Z,7.47
2019-03-25T15:22:25.259Z,10.30
2019-03-25T15:25:01.315Z,6.85
2019-03-25T15:27:43.205Z,8.65
2019-03-25T15:30:20.023Z,8.00
2019-03-25T15:33:02.834Z,8.63
2019-03-25T15:35:38.622Z,11.73
2019-03-25T15:38:20.769Z,8.23
2019-03-25T15:40:56.916Z,9.85
2019-03-25T15:43:39.429Z,8.40
2019-03-25T15:46:22.621Z,9.70
2019-03-25T15:49:04.866Z,10.32
2019-03-25T15:51:40.486Z,12.53
2019-03-25T15:54:22.623Z,14.55
2019-03-25T15:57:05.251Z,16.27
2019-03-25T15:59:48.318Z,15.90
2019-03-25T16:02:24.373Z,16.25
2019-03-25T16:05:00.594Z,13.88
2019-03-25T16:07:43.973Z,12.07
2019-03-25T16:10:34.916Z,13.83
2019-03-25T16:13:17.086Z,13.85
2019-03-25T16:16:00.163Z,17.48
2019-03-25T16:18:44.481Z,16.20
2019-03-25T16:21:21.075Z,16.02
2019-03-25T16:24:03.378Z,18.15
2019-03-25T16:26:46.481Z,19.02
2019-03-25T16:29:29.442Z,20.92
2019-03-25T16:32:05.951Z,21.93
2019-03-25T16:34:55.572Z,21.23
2019-03-25T16:37:37.539Z,24.25
2019-03-25T16:40:15.114Z,52.45
2019-03-25T16:42:57.208Z,22.00
2019-03-25T16:45:33.692Z,19.07
2019-03-25T16:48:16.478Z,18.07
2019-03-25T16:50:52.744Z,17.03
2019-03-25T16:53:36.006Z,16.48
2019-03-25T16:56:18.897Z,18.90
2019-03-25T16:59:02.353Z,19.30
2019-03-25T17:01:38.825Z,17.42
2019-03-25T17:04:21.592Z,19.30
2019-03-25T17:06:57.736Z,21.67
2019-03-25T17:09:40.051Z,21.65
2019-03-25T17:12:15.906Z,22.35
2019-03-25T17:14:58.461Z,21.30
2019-03-25T17:17:40.921Z,20.70
2019-03-25T17:20:31.221Z,19.42
2019-03-25T17:23:13.211Z,20.43
2019-03-25T17:25:53.323Z,23.45
2019-03-25T17:28:33.695Z,22.07
2019-03-25T17:31:16.714Z,25.12
2019-03-25T17:33:53.729Z,31.57
2019-03-25T17:36:29.706Z,27.73
2019-03-25T17:39:15.455Z,24.45
2019-03-25T17:41:51.662Z,23.70
2019-03-25T17:44:33.995Z,25.95
2019-03-25T17:47:29.644Z,29.65
2019-03-25T17:50:16.969Z,31.25
2019-03-25T17:52:53.722Z,31.60
2019-03-25T17:55:36.995Z,29.65
2019-03-25T17:58:13.756Z,27.25
2019-03-25T18:01:01.726Z,31.57
2019-03-25T18:03:37.826Z,29.75
2019-03-25T18:06:20.503Z,30.00
2019-03-25T18:08:56.989Z,24.35
2019-03-25T18:11:39.534Z,35.38
2019-03-25T18:14:15.832Z,63.15
2019-03-25T18:16:58.581Z,44.80
2019-03-25T18:19:41.478Z,29.17
2019-03-25T18:22:39.213Z,32.48
2019-03-25T18:25:15.145Z,31.48
2019-03-25T18:27:51.559Z,34.27
2019-03-25T18:30:41.326Z,33.00
2019-03-25T18:33:24.103Z,26.90
2019-03-25T18:36:07.255Z,21.70
2019-03-25T18:38:43.894Z,26.62
2019-03-25T18:41:33.631Z,31.45
2019-03-25T18:44:30.396Z,34.40
2019-03-25T18:47:06.493Z,33.92
2019-03-25T18:49:48.713Z,33.20
2019-03-25T18:52:32.026Z,29.70
2019-03-25T18:55:16.188Z,27.73
2019-03-25T18:57:52.736Z,25.57
2019-03-25T19:00:49.673Z,31.10
2019-03-25T19:03:31.780Z,49.75
2019-03-25T19:06:14.679Z,47.25
2019-03-25T19:09:04.026Z,42.30
2019-03-25T19:11:40.047Z,33.60
2019-03-25T19:14:22.771Z,29.20
2019-03-25T19:17:05.682Z,30.23
2019-03-25T19:19:48.407Z,26.75
2019-03-25T19:22:24.487Z,30.37
2019-03-25T19:25:07.173Z,31.02
2019-03-25T19:27:56.401Z,31.70
2019-03-25T19:30:38.846Z,43.65
2019-03-25T19:33:14.651Z,53.65
2019-03-25T19:36:03.997Z,55.78
2019-03-25T19:38:46.745Z,48.90
2019-03-25T19:41:32.160Z,40.60
2019-03-25T19:44:09.096Z,36.08
2019-03-25T19:46:51.480Z,32.42
2019-03-25T19:49:33.917Z,27.00
2019-03-25T19:52:10.595Z,25.27
2019-03-25T19:54:46.657Z,25.77
2019-03-25T19:57:29.763Z,25.27
2019-03-25T20:00:17.061Z,22.22
2019-03-25T20:02:53.256Z,25.95
2019-03-25T20:05:36.095Z,23.47
2019-03-25T20:08:19.085Z,18.02
2019-03-25T20:11:01.038Z,23.73
2019-03-25T20:13:37.119Z,21.15
2019-03-25T20:16:13.127Z,20.37
2019-03-25T20:18:56.491Z,20.12
2019-03-25T20:21:38.537Z,20.95
2019-03-25T20:24:14.437Z,20.32
2019-03-25T20:26:57.693Z,22.00
2019-03-25T20:29:40.528Z,21.40
2019-03-25T20:32:16.598Z,21.93
2019-03-25T20:34:59.323Z,23.12
2019-03-25T20:37:35.872Z,16.10
2019-03-25T20:40:19.305Z,22.13
2019-03-25T20:42:55.840Z,23.38
2019-03-25T20:45:39.252Z,25.70
2019-03-25T20:48:15.591Z,25.85
2019-03-25T20:50:58.307Z,23.98
2019-03-25T20:53:40.856Z,24.60
2019-03-25T20:56:17.330Z,25.00
2019-03-25T20:59:00.381Z,23.67
2019-03-25T21:01:36.456Z,22.25
2019-03-25T21:04:26.116Z,19.60
2019-03-25T21:07:01.588Z,20.70
2019-03-25T21:09:44.865Z,20.45
2019-03-25T21:12:20.504Z,18.87
2019-03-25T21:15:03.229Z,17.90
2019-03-25T21:17:52.081Z,19.67
2019-03-25T21:20:28.098Z,18.60
2019-03-25T21:23:04.137Z,17.60
2019-03-25T21:25:40.623Z,17.37
2019-03-25T21:28:23.244Z,17.62
2019-03-25T21:30:59.887Z,16.93
2019-03-25T21:33:43.341Z,17.42
2019-03-25T21:36:26.432Z,16.17
2019-03-25T21:39:09.612Z,16.37
2019-03-25T21:41:45.583Z,15.72
2019-03-25T21:44:28.451Z,17.52
2019-03-25T21:47:04.461Z,16.37
2019-03-25T21:49:47.587Z,15.60
2019-03-25T21:52:23.190Z,20.75
2019-03-25T21:55:06.148Z,21.10
2019-03-25T21:57:49.121Z,20.75
2019-03-25T22:00:32.086Z,20.75
2019-03-25T22:03:11.939Z,20.08
2019-03-25T22:05:52.968Z,20.60
2019-03-25T22:08:35.860Z,21.75
2019-03-25T22:11:11.670Z,21.45
2019-03-25T22:13:53.755Z,20.65
2019-03-25T22:16:36.854Z,20.35
2019-03-25T22:19:25.369Z,20.85
2019-03-25T22:22:09.010Z,21.12
2019-03-25T22:27:27.056Z,22.60
2019-03-25T22:30:03.491Z,22.65
2019-03-25T22:32:45.805Z,22.67
2019-03-25T22:35:29.065Z,21.48
2019-03-25T22:38:11.620Z,21.62
2019-03-25T22:40:48.002Z,22.67
2019-03-25T22:43:30.774Z,22.45
2019-03-25T22:46:06.987Z,23.33
2019-03-25T22:48:50.306Z,22.27
2019-03-25T22:51:26.076Z,22.42
2019-03-25T22:54:08.490Z,22.58
2019-03-25T22:56:44.977Z,19.55
2019-03-25T22:59:27.929Z,19.55
2019-03-25T23:02:10.799Z,19.90
2019-03-25T23:04:46.353Z,14.85
2019-03-25T23:07:29.420Z,21.05
2019-03-25T23:10:18.879Z,20.32
2019-03-25T23:13:01.723Z,19.80
2019-03-25T23:15:37.277Z,19.82
2019-03-25T23:18:20.298Z,18.75
2019-03-25T23:21:03.041Z,19.10
2019-03-25T23:23:38.884Z,19.57
2019-03-25T23:26:21.850Z,19.37
2019-03-25T23:28:57.807Z,19.30
2019-03-25T23:31:39.985Z,17.73
2019-03-25T23:34:22.667Z,17.17
2019-03-25T23:36:58.213Z,15.60
2019-03-25T23:39:34.200Z,14.15
2019-03-25T23:42:17.230Z,12.60
2019-03-25T23:45:00.051Z,12.20
2019-03-25T23:47:43.031Z,8.43
2019-03-25T23:50:18.577Z,8.08
2019-03-25T23:53:01.312Z,8.80
2019-03-25T23:55:51.280Z,8.80
2019-03-25T23:58:27.340Z,6.55
